createdAt,value
2023-04-08T00:01:48.441Z,65.60
2023-04-08T00:04:15.546Z,65.60
2023-04-08T00:06:42.369Z,66.00
2023-04-08T00:09:09.027Z,65.90
2023-04-08T00:11:35.984Z,65.90
2023-04-08T00:14:04.343Z,65.90
2023-04-08T00:16:31.298Z,66.00
2023-04-08T00:18:57.973Z,65.90
2023-04-08T00:21:24.682Z,66.00
2023-04-08T00:23:51.670Z,66.10
2023-04-08T00:26:18.349Z,66.50
2023-04-08T00:28:45.089Z,66.40
2023-04-08T00:31:11.847Z,66.30
2023-04-08T00:33:38.561Z,66.30
2023-04-08T00:36:05.458Z,66.20
2023-04-08T00:38:32.161Z,66.10
2023-04-08T00:40:58.879Z,66.20
2023-04-08T00:43:25.568Z,66.20
2023-04-08T00:45:52.418Z,66.30
2023-04-08T00:48:19.188Z,66.20
2023-04-08T00:50:47.138Z,66.10
2023-04-08T00:53:18.023Z,66.10
2023-04-08T00:55:45.317Z,65.70
2023-04-08T00:58:13.776Z,64.60
2023-04-08T01:00:46.457Z,64.20
2023-04-08T01:03:16.459Z,64.20
2023-04-08T01:05:59.907Z,64.70
2023-04-08T01:08:29.770Z,65.00
2023-04-08T01:11:01.018Z,65.10
2023-04-08T01:13:34.408Z,65.30
2023-04-08T01:16:01.461Z,65.50
2023-04-08T01:18:30.907Z,65.80
2023-04-08T01:20:59.112Z,66.10
2023-04-08T01:23:59.326Z,66.40
2023-04-08T01:26:26.894Z,66.70
2023-04-08T01:28:59.334Z,66.60
2023-04-08T01:31:26.956Z,66.40
2023-04-08T01:33:55.342Z,66.70
2023-04-08T01:36:24.271Z,66.40
2023-04-08T01:38:51.554Z,65.80
2023-04-08T01:41:19.536Z,65.60
2023-04-08T01:43:46.854Z,66.20
2023-04-08T01:46:14.097Z,65.80
2023-04-08T01:48:41.518Z,64.50
2023-04-08T01:51:09.606Z,63.70
2023-04-08T01:53:36.523Z,61.70
2023-04-08T01:56:07.660Z,60.60
2023-04-08T01:58:51.220Z,60.00
2023-04-08T02:01:20.998Z,57.70
2023-04-08T02:03:49.048Z,57.60
2023-04-08T02:06:15.804Z,55.40
2023-04-08T02:08:42.446Z,55.30
2023-04-08T02:11:09.829Z,54.20
2023-04-08T02:13:36.566Z,52.50
2023-04-08T02:16:22.366Z,52.80
2023-04-08T02:18:58.295Z,53.00
2023-04-08T02:21:33.344Z,53.40
2023-04-08T02:24:04.441Z,52.70
2023-04-08T02:26:36.207Z,52.90
2023-04-08T02:29:05.710Z,52.60
2023-04-08T02:31:33.656Z,53.10
2023-04-08T02:34:00.782Z,53.20
2023-04-08T02:36:27.857Z,53.70
2023-04-08T02:38:54.772Z,53.10
2023-04-08T02:41:21.618Z,53.30
2023-04-08T02:43:48.316Z,52.70
2023-04-08T02:46:15.606Z,52.80
2023-04-08T02:48:42.456Z,53.00
2023-04-08T02:51:09.125Z,54.30
2023-04-08T02:53:35.993Z,53.20
2023-04-08T02:56:02.709Z,54.10
2023-04-08T02:58:29.425Z,54.00
2023-04-08T03:00:56.244Z,54.50
2023-04-08T03:03:29.707Z,54.30
2023-04-08T03:05:57.124Z,54.70
2023-04-08T03:08:24.072Z,55.00
2023-04-08T03:10:50.938Z,55.30
2023-04-08T03:13:17.739Z,55.70
2023-04-08T03:15:44.461Z,56.10
2023-04-08T03:18:11.474Z,55.80
2023-04-08T03:20:38.113Z,55.60
2023-04-08T03:23:04.853Z,55.40
2023-04-08T03:25:31.656Z,56.10
2023-04-08T03:27:58.760Z,55.90
2023-04-08T03:30:26.163Z,56.60
2023-04-08T03:32:53.008Z,57.50
2023-04-08T03:35:19.932Z,58.10
2023-04-08T03:37:47.001Z,57.30
2023-04-08T03:40:14.033Z,57.90
2023-04-08T03:42:40.777Z,57.90
2023-04-08T03:45:07.891Z,57.30
2023-04-08T03:47:34.640Z,57.40
2023-04-08T03:50:01.382Z,57.60
2023-04-08T03:52:28.093Z,58.50
2023-04-08T03:54:54.763Z,59.00
2023-04-08T03:57:21.440Z,58.80
2023-04-08T03:59:48.083Z,58.70
2023-04-08T04:02:14.834Z,58.60
2023-04-08T04:04:41.813Z,57.40
2023-04-08T04:07:08.534Z,57.80
2023-04-08T04:09:35.481Z,57.70
2023-04-08T04:12:02.364Z,57.90
2023-04-08T04:14:29.007Z,58.00
2023-04-08T04:16:55.809Z,58.80
2023-04-08T04:19:22.518Z,58.70
2023-04-08T04:21:49.213Z,59.40
2023-04-08T04:24:15.951Z,60.50
2023-04-08T04:26:42.691Z,61.00
2023-04-08T04:29:09.361Z,62.10
2023-04-08T04:31:36.087Z,62.70
2023-04-08T04:34:02.899Z,63.90
2023-04-08T04:36:29.604Z,65.30
2023-04-08T04:38:56.773Z,67.10
2023-04-08T04:41:23.564Z,68.50
2023-04-08T04:43:50.447Z,68.80
2023-04-08T04:46:17.142Z,70.00
2023-04-08T04:48:43.962Z,70.50
2023-04-08T04:51:10.758Z,71.60
2023-04-08T04:53:37.356Z,72.20
2023-04-08T04:56:04.162Z,72.40
2023-04-08T04:58:30.979Z,72.90
2023-04-08T05:00:57.984Z,73.50
2023-04-08T05:03:24.827Z,74.10
2023-04-08T05:05:55.357Z,75.50
2023-04-08T05:08:22.358Z,76.20
2023-04-08T05:10:50.688Z,76.70
2023-04-08T05:13:18.317Z,76.80
2023-04-08T05:15:47.867Z,76.50
2023-04-08T05:18:14.845Z,77.10
2023-04-08T05:20:41.543Z,77.10
2023-04-08T05:23:08.664Z,77.60
2023-04-08T05:25:35.647Z,77.70
2023-04-08T05:28:02.607Z,78.20
2023-04-08T05:30:29.321Z,78.90
2023-04-08T05:32:59.381Z,79.30
2023-04-08T05:35:27.146Z,79.40
2023-04-08T05:37:53.836Z,79.30
2023-04-08T05:40:20.549Z,79.90
2023-04-08T05:42:47.244Z,79.80
2023-04-08T05:45:13.885Z,80.20
2023-04-08T05:47:40.588Z,80.80
2023-04-08T05:50:07.992Z,80.70
2023-04-08T05:52:34.612Z,80.80
2023-04-08T05:55:01.300Z,81.00
2023-04-08T05:57:27.993Z,81.00
2023-04-08T05:59:54.656Z,81.10
2023-04-08T06:02:21.645Z,81.50
2023-04-08T06:04:48.391Z,82.20
2023-04-08T06:07:15.451Z,82.60
2023-04-08T06:09:43.289Z,82.80
2023-04-08T06:12:11.546Z,82.90
2023-04-08T06:14:38.315Z,83.20
2023-04-08T06:17:05.168Z,83.80
2023-04-08T06:19:31.832Z,84.30
2023-04-08T06:21:59.179Z,84.50
2023-04-08T06:24:27.496Z,85.20
2023-04-08T06:26:54.367Z,85.80
2023-04-08T06:29:22.053Z,86.40
2023-04-08T06:31:49.390Z,86.50
2023-04-08T06:34:16.703Z,87.00
2023-04-08T06:36:43.982Z,87.40
2023-04-08T06:39:10.702Z,87.50
2023-04-08T06:41:37.375Z,87.50
2023-04-08T06:44:04.135Z,87.60
2023-04-08T06:46:30.782Z,87.70
2023-04-08T06:48:57.444Z,87.80
2023-04-08T06:51:24.123Z,88.00
2023-04-08T06:53:50.778Z,88.00
2023-04-08T06:56:17.421Z,88.40
2023-04-08T06:58:44.066Z,88.50
2023-04-08T07:01:11.131Z,88.50
2023-04-08T07:03:38.028Z,88.60
2023-04-08T07:06:05.202Z,88.70
2023-04-08T07:08:31.854Z,89.20
2023-04-08T07:10:58.576Z,89.90
2023-04-08T07:13:25.261Z,90.20
2023-04-08T07:15:52.111Z,90.90
2023-04-08T07:18:18.800Z,91.20
2023-04-08T07:20:45.471Z,91.80
2023-04-08T07:23:12.134Z,91.80
2023-04-08T07:25:38.812Z,91.70
2023-04-08T07:28:05.439Z,91.90
2023-04-08T07:30:32.194Z,92.00
2023-04-08T07:33:00.757Z,92.40
2023-04-08T07:35:28.121Z,92.40
2023-04-08T07:37:55.073Z,92.60
2023-04-08T07:40:21.851Z,92.80
2023-04-08T07:42:49.251Z,92.70
2023-04-08T07:45:16.064Z,92.90
2023-04-08T07:47:42.818Z,92.80
2023-04-08T07:50:09.808Z,92.30
2023-04-08T07:52:36.468Z,91.30
2023-04-08T07:55:03.243Z,90.50
2023-04-08T07:57:30.738Z,89.90
2023-04-08T07:59:57.461Z,89.40
2023-04-08T08:02:24.404Z,88.40
2023-04-08T08:04:51.450Z,88.40
2023-04-08T08:07:18.215Z,88.30
2023-04-08T08:09:44.934Z,88.50
2023-04-08T08:12:11.693Z,88.60
2023-04-08T08:14:38.852Z,89.20
2023-04-08T08:17:05.515Z,89.20
2023-04-08T08:19:32.186Z,88.70
2023-04-08T08:21:58.913Z,89.10
2023-04-08T08:24:26.033Z,89.00
2023-04-08T08:26:52.871Z,89.40
2023-04-08T08:29:19.533Z,89.60
2023-04-08T08:31:48.424Z,89.00
2023-04-08T08:34:15.481Z,88.80
2023-04-08T08:36:42.314Z,88.10
2023-04-08T08:39:09.040Z,88.20
2023-04-08T08:41:38.408Z,87.40
2023-04-08T08:44:09.913Z,86.60
2023-04-08T08:46:36.703Z,86.70
2023-04-08T08:49:03.449Z,85.50
2023-04-08T08:51:32.819Z,85.20
2023-04-08T08:54:02.795Z,85.90
2023-04-08T08:56:29.481Z,85.20
2023-04-08T08:58:56.174Z,85.20
2023-04-08T09:01:33.809Z,85.30
2023-04-08T09:04:21.125Z,84.80
2023-04-08T09:06:50.136Z,85.00
2023-04-08T09:09:18.016Z,85.20
2023-04-08T09:11:46.480Z,85.50
2023-04-08T09:14:19.945Z,85.60
2023-04-08T09:16:47.138Z,85.50
2023-04-08T09:19:14.278Z,85.50
2023-04-08T09:21:41.429Z,84.70
2023-04-08T09:24:09.574Z,84.70
2023-04-08T09:26:37.587Z,84.50
2023-04-08T09:29:18.267Z,85.40
2023-04-08T09:31:59.601Z,84.70
2023-04-08T09:34:28.072Z,84.60
2023-04-08T09:36:55.763Z,84.90
2023-04-08T09:39:22.822Z,84.40
2023-04-08T09:41:51.773Z,85.10
2023-04-08T09:44:23.528Z,85.70
2023-04-08T09:46:50.284Z,85.80
2023-04-08T09:49:29.845Z,84.80
2023-04-08T09:52:06.173Z,84.70
2023-04-08T09:54:56.230Z,84.10
2023-04-08T09:57:37.008Z,84.20
2023-04-08T10:00:28.867Z,83.70
2023-04-08T10:03:21.282Z,84.10
2023-04-08T10:05:49.641Z,83.00
2023-04-08T10:08:16.734Z,82.70
2023-04-08T10:10:46.109Z,82.80
2023-04-08T10:13:13.685Z,82.60
2023-04-08T10:15:44.207Z,83.20
2023-04-08T10:18:11.152Z,84.00
2023-04-08T10:20:37.970Z,84.40
2023-04-08T10:23:10.358Z,85.60
2023-04-08T10:25:41.634Z,84.90
2023-04-08T10:28:11.322Z,84.00
2023-04-08T10:30:47.571Z,83.40
2023-04-08T10:33:32.938Z,84.00
2023-04-08T10:36:06.794Z,83.50
2023-04-08T10:38:33.855Z,82.80
2023-04-08T10:41:00.649Z,83.10
2023-04-08T10:43:33.801Z,83.00
2023-04-08T10:46:01.536Z,82.50
2023-04-08T10:48:31.342Z,83.40
2023-04-08T10:50:59.593Z,82.90
2023-04-08T10:53:27.929Z,81.40
2023-04-08T10:56:03.342Z,82.40
2023-04-08T10:58:30.751Z,81.90
2023-04-08T11:01:04.376Z,81.80
2023-04-08T11:03:37.241Z,81.90
2023-04-08T11:06:15.725Z,82.00
2023-04-08T11:08:42.508Z,82.30
2023-04-08T11:11:10.745Z,82.60
2023-04-08T11:13:41.620Z,81.80
2023-04-08T11:16:18.317Z,82.60
2023-04-08T11:18:45.955Z,82.40
2023-04-08T11:21:12.849Z,83.00
2023-04-08T11:23:39.660Z,83.10
2023-04-08T11:26:06.941Z,83.50
2023-04-08T11:28:35.488Z,83.10
2023-04-08T11:31:05.787Z,83.60
2023-04-08T11:33:33.008Z,83.50
2023-04-08T11:36:04.179Z,83.20
2023-04-08T11:38:31.046Z,83.20
2023-04-08T11:40:59.414Z,83.30
2023-04-08T11:43:27.042Z,81.40
2023-04-08T11:45:53.835Z,81.40
2023-04-08T11:48:20.547Z,81.30
2023-04-08T11:50:47.432Z,81.40
2023-04-08T11:53:21.586Z,80.70
2023-04-08T11:55:49.081Z,80.00
2023-04-08T11:58:15.973Z,78.00
2023-04-08T12:00:43.673Z,76.00
2023-04-08T12:03:11.453Z,77.00
2023-04-08T12:05:38.331Z,75.50
2023-04-08T12:08:05.180Z,76.70
2023-04-08T12:10:31.880Z,75.70
2023-04-08T12:12:58.601Z,74.80
2023-04-08T12:15:25.384Z,75.90
2023-04-08T12:17:52.183Z,76.20
2023-04-08T12:20:19.028Z,76.50
2023-04-08T12:22:45.821Z,75.70
2023-04-08T12:25:12.576Z,75.30
2023-04-08T12:27:39.307Z,75.10
2023-04-08T12:30:06.549Z,76.10
2023-04-08T12:32:33.608Z,76.70
2023-04-08T12:35:00.544Z,77.30
2023-04-08T12:37:28.001Z,77.30
2023-04-08T12:39:54.732Z,76.70
2023-04-08T12:42:21.640Z,77.10
2023-04-08T12:44:48.401Z,76.80
2023-04-08T12:47:15.631Z,76.30
2023-04-08T12:49:49.217Z,75.20
2023-04-08T12:52:17.664Z,76.60
2023-04-08T12:54:44.627Z,74.60
2023-04-08T12:57:11.319Z,73.60
2023-04-08T12:59:39.852Z,75.20
2023-04-08T13:02:07.739Z,76.10
2023-04-08T13:04:34.848Z,76.30
2023-04-08T13:07:01.595Z,77.70
2023-04-08T13:09:30.007Z,77.50
2023-04-08T13:11:56.648Z,76.80
2023-04-08T13:14:23.295Z,75.90
2023-04-08T13:16:50.063Z,74.60
2023-04-08T13:19:16.888Z,75.40
2023-04-08T13:21:45.527Z,75.30
2023-04-08T13:24:12.883Z,75.30
2023-04-08T13:26:39.594Z,76.50
2023-04-08T13:29:06.803Z,75.60
2023-04-08T13:31:33.603Z,74.20
2023-04-08T13:34:00.671Z,74.90
2023-04-08T13:36:28.895Z,74.50
2023-04-08T13:38:56.516Z,73.00
2023-04-08T13:41:23.696Z,71.70
2023-04-08T13:43:50.653Z,71.70
2023-04-08T13:46:18.180Z,70.50
2023-04-08T13:48:46.051Z,67.30
2023-04-08T13:51:12.901Z,65.40
2023-04-08T13:53:39.700Z,65.90
2023-04-08T13:56:06.941Z,65.60
2023-04-08T13:58:33.842Z,64.40
2023-04-08T14:01:00.662Z,62.60
2023-04-08T14:03:29.436Z,59.20
2023-04-08T14:05:57.540Z,56.70
2023-04-08T14:08:25.907Z,54.70
2023-04-08T14:10:55.768Z,55.60
2023-04-08T14:13:22.702Z,54.80
2023-04-08T14:15:50.001Z,57.90
2023-04-08T14:18:19.466Z,56.10
2023-04-08T14:20:46.228Z,55.60
2023-04-08T14:23:17.080Z,51.80
2023-04-08T14:25:44.077Z,52.90
2023-04-08T14:28:11.493Z,54.80
2023-04-08T14:30:38.253Z,53.40
2023-04-08T14:33:05.617Z,56.10
2023-04-08T14:35:32.617Z,53.50
2023-04-08T14:37:59.943Z,55.30
2023-04-08T14:40:26.731Z,54.40
2023-04-08T14:42:53.930Z,53.40
2023-04-08T14:45:20.682Z,53.40
2023-04-08T14:47:47.457Z,53.00
2023-04-08T14:50:14.199Z,51.50
2023-04-08T14:52:41.041Z,51.90
2023-04-08T14:55:07.942Z,51.00
2023-04-08T14:57:34.707Z,52.70
2023-04-08T15:00:01.855Z,51.90
2023-04-08T15:02:28.792Z,52.40
2023-04-08T15:04:55.710Z,53.00
2023-04-08T15:07:22.689Z,54.60
2023-04-08T15:09:49.403Z,54.60
2023-04-08T15:12:16.113Z,54.70
2023-04-08T15:14:42.830Z,56.00
2023-04-08T15:17:10.205Z,55.10
2023-04-08T15:19:36.958Z,55.20
2023-04-08T15:22:03.769Z,55.60
2023-04-08T15:24:30.655Z,57.20
2023-04-08T15:26:57.549Z,57.60
2023-04-08T15:29:24.669Z,59.50
2023-04-08T15:31:52.511Z,59.60
2023-04-08T15:34:19.280Z,61.40
2023-04-08T15:36:47.520Z,61.50
2023-04-08T15:39:14.847Z,62.30
2023-04-08T15:41:41.561Z,63.20
2023-04-08T15:44:08.411Z,63.70
2023-04-08T15:46:37.410Z,64.60
2023-04-08T15:49:04.674Z,65.00
2023-04-08T15:51:32.326Z,64.40
2023-04-08T15:53:59.701Z,64.60
2023-04-08T15:56:28.324Z,64.70
2023-04-08T15:58:56.507Z,64.60
2023-04-08T16:01:23.445Z,65.70
2023-04-08T16:03:50.592Z,66.30
2023-04-08T16:06:17.703Z,66.60
2023-04-08T16:08:46.825Z,67.40
2023-04-08T16:11:13.714Z,67.30
2023-04-08T16:13:42.316Z,67.50
2023-04-08T16:16:09.233Z,67.80
2023-04-08T16:18:36.167Z,68.50
2023-04-08T16:21:05.701Z,69.60
2023-04-08T16:23:34.211Z,70.00
2023-04-08T16:26:01.709Z,70.30
2023-04-08T16:28:28.614Z,70.30
2023-04-08T16:30:55.975Z,71.40
2023-04-08T16:33:29.678Z,71.30
2023-04-08T16:36:00.575Z,71.60
2023-04-08T16:38:27.752Z,71.30
2023-04-08T16:40:58.324Z,71.80
2023-04-08T16:43:25.950Z,72.60
2023-04-08T16:45:53.224Z,73.10
2023-04-08T16:48:20.084Z,73.10
2023-04-08T16:50:46.823Z,73.20
2023-04-08T16:53:13.574Z,74.10
2023-04-08T16:55:40.416Z,73.70
2023-04-08T16:58:07.384Z,74.30
2023-04-08T17:00:34.354Z,75.00
2023-04-08T17:03:01.693Z,75.50
2023-04-08T17:05:28.620Z,75.70
2023-04-08T17:07:58.918Z,76.20
2023-04-08T17:10:25.656Z,77.00
2023-04-08T17:12:52.370Z,77.30
2023-04-08T17:15:19.053Z,77.40
2023-04-08T17:17:46.456Z,78.00
2023-04-08T17:20:13.500Z,78.70
2023-04-08T17:22:40.224Z,79.20
2023-04-08T17:25:07.848Z,80.00
2023-04-08T17:27:35.772Z,80.10
2023-04-08T17:30:02.623Z,80.30
2023-04-08T17:32:29.299Z,80.30
2023-04-08T17:34:56.200Z,80.00
2023-04-08T17:37:22.904Z,79.90
2023-04-08T17:39:49.545Z,79.20
2023-04-08T17:42:16.883Z,78.80
2023-04-08T17:44:44.700Z,78.60
2023-04-08T17:47:11.473Z,78.70
2023-04-08T17:49:38.214Z,78.60
2023-04-08T17:52:06.126Z,78.60
2023-04-08T17:54:34.431Z,78.80
2023-04-08T17:57:01.630Z,79.20
2023-04-08T17:59:28.370Z,79.40
2023-04-08T18:01:55.396Z,79.60
2023-04-08T18:04:22.812Z,79.70
2023-04-08T18:06:49.601Z,79.90
2023-04-08T18:09:16.282Z,79.90
2023-04-08T18:11:42.980Z,80.20
2023-04-08T18:14:09.789Z,80.30
2023-04-08T18:16:36.593Z,80.70
2023-04-08T18:19:03.355Z,80.70
2023-04-08T18:21:29.978Z,80.90
2023-04-08T18:23:56.642Z,81.20
2023-04-08T18:26:23.427Z,81.50
2023-04-08T18:28:50.208Z,81.50
2023-04-08T18:31:16.950Z,81.60
2023-04-08T18:33:43.732Z,81.60
2023-04-08T18:36:14.914Z,81.50
2023-04-08T18:38:41.842Z,82.30
2023-04-08T18:41:08.668Z,81.90
2023-04-08T18:43:35.551Z,81.90
2023-04-08T18:46:02.419Z,81.80
2023-04-08T18:48:29.512Z,81.90
2023-04-08T18:50:56.654Z,81.80
2023-04-08T18:53:23.376Z,81.80
2023-04-08T18:55:51.174Z,81.80
2023-04-08T18:58:18.228Z,81.90
2023-04-08T19:00:45.112Z,82.10
2023-04-08T19:03:11.954Z,82.10
2023-04-08T19:05:38.815Z,82.10
2023-04-08T19:08:06.357Z,82.20
2023-04-08T19:10:34.408Z,82.30
2023-04-08T19:13:01.801Z,82.30
2023-04-08T19:15:29.001Z,82.30
2023-04-08T19:17:56.775Z,82.40
2023-04-08T19:20:23.955Z,82.40
2023-04-08T19:22:51.248Z,82.40
2023-04-08T19:25:18.131Z,82.50
2023-04-08T19:27:46.018Z,82.40
2023-04-08T19:30:13.433Z,82.50
2023-04-08T19:32:40.553Z,82.50
2023-04-08T19:35:08.070Z,82.50
2023-04-08T19:37:34.963Z,82.30
2023-04-08T19:40:01.869Z,82.40
2023-04-08T19:42:29.287Z,82.20
2023-04-08T19:44:56.200Z,82.30
2023-04-08T19:47:22.998Z,82.30
2023-04-08T19:49:50.022Z,82.40
2023-04-08T19:52:16.817Z,82.60
2023-04-08T19:54:43.729Z,82.70
2023-04-08T19:57:10.910Z,82.60
2023-04-08T19:59:38.248Z,82.70
2023-04-08T20:02:05.245Z,82.80
2023-04-08T20:04:32.708Z,82.90
2023-04-08T20:07:03.484Z,83.70
2023-04-08T20:09:33.324Z,83.70
2023-04-08T20:12:06.401Z,83.10
2023-04-08T20:14:35.739Z,83.90
2023-04-08T20:17:04.333Z,83.20
2023-04-08T20:19:31.202Z,83.10
2023-04-08T20:21:57.939Z,83.20
2023-04-08T20:24:24.828Z,83.40
2023-04-08T20:26:52.475Z,83.70
2023-04-08T20:29:19.327Z,83.90
2023-04-08T20:31:46.317Z,84.00
2023-04-08T20:34:13.423Z,84.30
2023-04-08T20:36:40.332Z,84.40
2023-04-08T20:39:10.502Z,84.50
2023-04-08T20:41:37.699Z,84.60
2023-04-08T20:44:07.042Z,84.70
2023-04-08T20:46:35.147Z,84.80
2023-04-08T20:49:03.504Z,85.00
2023-04-08T20:51:31.009Z,85.20
2023-04-08T20:53:58.407Z,85.20
2023-04-08T20:56:26.472Z,85.40
2023-04-08T20:58:53.716Z,85.40
2023-04-08T21:01:21.580Z,85.50
2023-04-08T21:03:49.411Z,85.60
2023-04-08T21:06:20.273Z,85.70
2023-04-08T21:08:47.350Z,85.70
2023-04-08T21:11:14.923Z,85.80
2023-04-08T21:13:41.940Z,85.90
2023-04-08T21:16:08.784Z,86.00
2023-04-08T21:18:38.903Z,86.10
2023-04-08T21:21:06.295Z,86.20
2023-04-08T21:23:33.028Z,86.20
2023-04-08T21:26:01.320Z,86.20
2023-04-08T21:28:29.465Z,86.30
2023-04-08T21:30:56.568Z,86.40
2023-04-08T21:33:23.206Z,86.70
2023-04-08T21:35:49.901Z,87.10
2023-04-08T21:38:16.607Z,87.20
2023-04-08T21:40:43.301Z,87.00
2023-04-08T21:43:09.954Z,86.90
2023-04-08T21:45:36.656Z,86.70
2023-04-08T21:48:03.383Z,86.80
2023-04-08T21:50:31.256Z,86.90
2023-04-08T21:52:57.917Z,87.00
2023-04-08T21:55:25.729Z,87.10
2023-04-08T21:57:52.390Z,87.20
2023-04-08T22:00:19.082Z,87.40
2023-04-08T22:02:45.999Z,87.50
2023-04-08T22:05:12.730Z,87.70
2023-04-08T22:07:39.553Z,87.70
2023-04-08T22:10:07.356Z,88.00
2023-04-08T22:12:34.599Z,87.90
2023-04-08T22:15:01.300Z,88.20
2023-04-08T22:17:28.070Z,88.30
2023-04-08T22:19:54.866Z,88.50
2023-04-08T22:22:21.577Z,88.60
2023-04-08T22:24:48.354Z,88.60
2023-04-08T22:27:15.100Z,88.80
2023-04-08T22:29:41.847Z,88.80
2023-04-08T22:32:08.535Z,88.90
2023-04-08T22:34:36.669Z,88.90
2023-04-08T22:37:03.317Z,89.00
2023-04-08T22:39:30.086Z,89.00
2023-04-08T22:41:57.452Z,89.10
2023-04-08T22:44:24.202Z,89.10
2023-04-08T22:46:51.541Z,89.00
2023-04-08T22:49:18.218Z,89.20
2023-04-08T22:51:44.844Z,89.30
2023-04-08T22:54:11.611Z,89.50
2023-04-08T22:56:38.317Z,89.60
2023-04-08T22:59:05.001Z,89.60
2023-04-08T23:01:31.861Z,89.60
2023-04-08T23:03:58.727Z,89.50
2023-04-08T23:06:27.393Z,89.50
2023-04-08T23:08:54.253Z,89.50
2023-04-08T23:11:21.318Z,89.50
2023-04-08T23:13:48.064Z,89.50
2023-04-08T23:16:14.981Z,89.60
2023-04-08T23:18:41.670Z,89.60
2023-04-08T23:21:08.465Z,89.50
2023-04-08T23:23:35.217Z,89.50
2023-04-08T23:26:01.894Z,89.30
2023-04-08T23:28:28.579Z,89.30
2023-04-08T23:30:55.414Z,89.30
2023-04-08T23:33:22.174Z,89.30
2023-04-08T23:35:48.992Z,89.40
2023-04-08T23:38:15.922Z,89.50
2023-04-08T23:40:42.650Z,89.30
2023-04-08T23:43:09.558Z,89.40
2023-04-08T23:45:36.260Z,89.70
2023-04-08T23:48:03.030Z,89.80
2023-04-08T23:50:29.874Z,89.80
2023-04-08T23:52:56.666Z,89.70
2023-04-08T23:55:23.504Z,89.80
2023-04-08T23:57:50.935Z,89.90
